sensor_id;sensor_type;location;lat;lon;timestamp;P1;durP1;ratioP1;P2;durP2;ratioP2
37641;SDS011;23486;51.956;5.888;2023-04-05T00:01:30;4.47;;;1.63;;
37641;SDS011;23486;51.956;5.888;2023-04-05T00:03:57;4.22;;;1.95;;
37641;SDS011;23486;51.956;5.888;2023-04-05T00:06:24;4.85;;;1.20;;
37641;SDS011;23486;51.956;5.888;2023-04-05T00:08:53;4.38;;;1.75;;
37641;SDS011;23486;51.956;5.888;2023-04-05T00:11:20;4.18;;;1.45;;
37641;SDS011;23486;51.956;5.888;2023-04-05T00:13:46;4.93;;;1.63;;
37641;SDS011;23486;51.956;5.888;2023-04-05T00:16:12;3.15;;;0.90;;
37641;SDS011;23486;51.956;5.888;2023-04-05T00:18:39;3.42;;;1.08;;
37641;SDS011;23486;51.956;5.888;2023-04-05T00:21:10;4.60;;;1.83;;
37641;SDS011;23486;51.956;5.888;2023-04-05T00:23:38;4.22;;;1.63;;
37641;SDS011;23486;51.956;5.888;2023-04-05T00:26:05;7.03;;;2.80;;
37641;SDS011;23486;51.956;5.888;2023-04-05T00:28:34;6.15;;;2.03;;
37641;SDS011;23486;51.956;5.888;2023-04-05T00:31:03;5.90;;;1.70;;
37641;SDS011;23486;51.956;5.888;2023-04-05T00:33:29;6.07;;;2.05;;
37641;SDS011;23486;51.956;5.888;2023-04-05T00:35:55;4.43;;;1.63;;
37641;SDS011;23486;51.956;5.888;2023-04-05T00:38:20;8.30;;;2.25;;
37641;SDS011;23486;51.956;5.888;2023-04-05T00:40:46;5.28;;;2.15;;
37641;SDS011;23486;51.956;5.888;2023-04-05T00:43:11;6.00;;;2.00;;
37641;SDS011;23486;51.956;5.888;2023-04-05T00:45:40;4.95;;;1.95;;
37641;SDS011;23486;51.956;5.888;2023-04-05T00:48:06;4.43;;;1.73;;
37641;SDS011;23486;51.956;5.888;2023-04-05T00:50:32;7.72;;;1.95;;
37641;SDS011;23486;51.956;5.888;2023-04-05T00:52:58;7.75;;;2.08;;
37641;SDS011;23486;51.956;5.888;2023-04-05T00:55:24;5.18;;;1.88;;
37641;SDS011;23486;51.956;5.888;2023-04-05T00:57:51;5.30;;;2.40;;
37641;SDS011;23486;51.956;5.888;2023-04-05T01:00:18;5.25;;;2.33;;
37641;SDS011;23486;51.956;5.888;2023-04-05T01:02:51;5.53;;;2.42;;
37641;SDS011;23486;51.956;5.888;2023-04-05T01:05:39;4.88;;;1.85;;
37641;SDS011;23486;51.956;5.888;2023-04-05T01:08:13;5.57;;;1.70;;
37641;SDS011;23486;51.956;5.888;2023-04-05T01:13:33;5.75;;;1.92;;
37641;SDS011;23486;51.956;5.888;2023-04-05T01:15:58;6.07;;;2.15;;
37641;SDS011;23486;51.956;5.888;2023-04-05T01:18:24;7.18;;;2.72;;
37641;SDS011;23486;51.956;5.888;2023-04-05T01:20:53;7.07;;;2.22;;
37641;SDS011;23486;51.956;5.888;2023-04-05T01:23:46;5.28;;;1.85;;
37641;SDS011;23486;51.956;5.888;2023-04-05T01:26:39;5.15;;;1.70;;
37641;SDS011;23486;51.956;5.888;2023-04-05T01:37:01;4.72;;;1.73;;
37641;SDS011;23486;51.956;5.888;2023-04-05T01:39:30;4.10;;;1.15;;
37641;SDS011;23486;51.956;5.888;2023-04-05T01:42:00;4.30;;;1.60;;
37641;SDS011;23486;51.956;5.888;2023-04-05T01:44:35;4.50;;;1.33;;
37641;SDS011;23486;51.956;5.888;2023-04-05T01:47:01;6.78;;;1.10;;
37641;SDS011;23486;51.956;5.888;2023-04-05T01:49:26;6.03;;;1.80;;
37641;SDS011;23486;51.956;5.888;2023-04-05T01:51:52;4.68;;;1.42;;
37641;SDS011;23486;51.956;5.888;2023-04-05T01:54:18;4.60;;;1.40;;
37641;SDS011;23486;51.956;5.888;2023-04-05T01:56:43;4.70;;;1.52;;
37641;SDS011;23486;51.956;5.888;2023-04-05T01:59:10;4.50;;;1.60;;
37641;SDS011;23486;51.956;5.888;2023-04-05T02:01:35;4.30;;;1.70;;
37641;SDS011;23486;51.956;5.888;2023-04-05T02:04:01;5.88;;;1.85;;
37641;SDS011;23486;51.956;5.888;2023-04-05T02:06:26;4.75;;;1.92;;
37641;SDS011;23486;51.956;5.888;2023-04-05T02:08:52;4.28;;;1.77;;
37641;SDS011;23486;51.956;5.888;2023-04-05T02:11:18;6.80;;;2.50;;
37641;SDS011;23486;51.956;5.888;2023-04-05T02:13:43;5.60;;;1.85;;
37641;SDS011;23486;51.956;5.888;2023-04-05T02:16:12;5.32;;;1.92;;
37641;SDS011;23486;51.956;5.888;2023-04-05T02:18:37;5.57;;;1.83;;
37641;SDS011;23486;51.956;5.888;2023-04-05T02:21:04;4.80;;;1.70;;
37641;SDS011;23486;51.956;5.888;2023-04-05T02:23:35;4.47;;;1.52;;
37641;SDS011;23486;51.956;5.888;2023-04-05T02:26:01;4.35;;;1.15;;
37641;SDS011;23486;51.956;5.888;2023-04-05T02:28:27;6.50;;;1.90;;
37641;SDS011;23486;51.956;5.888;2023-04-05T02:30:52;4.93;;;1.77;;
37641;SDS011;23486;51.956;5.888;2023-04-05T02:33:18;5.88;;;2.05;;
37641;SDS011;23486;51.956;5.888;2023-04-05T02:35:48;8.27;;;2.42;;
37641;SDS011;23486;51.956;5.888;2023-04-05T02:38:15;9.13;;;3.08;;
37641;SDS011;23486;51.956;5.888;2023-04-05T02:40:41;8.23;;;2.35;;
37641;SDS011;23486;51.956;5.888;2023-04-05T02:43:07;6.20;;;2.38;;
37641;SDS011;23486;51.956;5.888;2023-04-05T02:45:32;6.10;;;2.17;;
37641;SDS011;23486;51.956;5.888;2023-04-05T02:47:58;6.95;;;1.92;;
37641;SDS011;23486;51.956;5.888;2023-04-05T02:50:23;6.03;;;2.20;;
37641;SDS011;23486;51.956;5.888;2023-04-05T02:52:49;9.10;;;2.90;;
37641;SDS011;23486;51.956;5.888;2023-04-05T02:55:15;7.55;;;3.40;;
37641;SDS011;23486;51.956;5.888;2023-04-05T02:57:43;6.00;;;2.75;;
37641;SDS011;23486;51.956;5.888;2023-04-05T03:00:09;8.15;;;2.63;;
37641;SDS011;23486;51.956;5.888;2023-04-05T03:02:36;6.45;;;2.67;;
37641;SDS011;23486;51.956;5.888;2023-04-05T03:05:03;6.47;;;2.30;;
37641;SDS011;23486;51.956;5.888;2023-04-05T03:07:30;6.00;;;2.33;;
37641;SDS011;23486;51.956;5.888;2023-04-05T03:09:56;7.78;;;3.15;;
37641;SDS011;23486;51.956;5.888;2023-04-05T03:12:22;5.85;;;2.55;;
37641;SDS011;23486;51.956;5.888;2023-04-05T03:14:48;5.13;;;2.00;;
37641;SDS011;23486;51.956;5.888;2023-04-05T03:17:13;4.35;;;1.40;;
37641;SDS011;23486;51.956;5.888;2023-04-05T03:19:39;6.45;;;2.63;;
37641;SDS011;23486;51.956;5.888;2023-04-05T03:22:04;8.13;;;2.50;;
37641;SDS011;23486;51.956;5.888;2023-04-05T03:24:31;4.90;;;2.28;;
37641;SDS011;23486;51.956;5.888;2023-04-05T03:26:58;7.85;;;2.75;;
37641;SDS011;23486;51.956;5.888;2023-04-05T03:29:26;8.23;;;3.28;;
37641;SDS011;23486;51.956;5.888;2023-04-05T03:31:56;9.15;;;2.97;;
37641;SDS011;23486;51.956;5.888;2023-04-05T03:34:22;8.00;;;3.70;;
37641;SDS011;23486;51.956;5.888;2023-04-05T03:36:52;9.18;;;2.72;;
37641;SDS011;23486;51.956;5.888;2023-04-05T03:39:18;8.15;;;2.90;;
37641;SDS011;23486;51.956;5.888;2023-04-05T03:41:51;8.07;;;2.45;;
37641;SDS011;23486;51.956;5.888;2023-04-05T03:44:16;9.73;;;2.65;;
37641;SDS011;23486;51.956;5.888;2023-04-05T03:46:48;6.57;;;2.92;;
37641;SDS011;23486;51.956;5.888;2023-04-05T03:49:13;5.88;;;2.60;;
37641;SDS011;23486;51.956;5.888;2023-04-05T03:51:40;5.40;;;2.33;;
37641;SDS011;23486;51.956;5.888;2023-04-05T03:54:06;8.75;;;2.63;;
37641;SDS011;23486;51.956;5.888;2023-04-05T03:56:31;4.97;;;1.70;;
37641;SDS011;23486;51.956;5.888;2023-04-05T03:58:57;5.68;;;2.38;;
37641;SDS011;23486;51.956;5.888;2023-04-05T04:01:23;5.25;;;2.10;;
37641;SDS011;23486;51.956;5.888;2023-04-05T04:03:48;9.43;;;3.03;;
37641;SDS011;23486;51.956;5.888;2023-04-05T04:06:14;7.43;;;3.00;;
37641;SDS011;23486;51.956;5.888;2023-04-05T04:08:40;7.15;;;3.22;;
37641;SDS011;23486;51.956;5.888;2023-04-05T04:11:05;11.05;;;3.03;;
37641;SDS011;23486;51.956;5.888;2023-04-05T04:13:31;6.78;;;2.97;;
37641;SDS011;23486;51.956;5.888;2023-04-05T04:15:57;8.02;;;3.42;;
37641;SDS011;23486;51.956;5.888;2023-04-05T04:18:25;6.40;;;2.45;;
37641;SDS011;23486;51.956;5.888;2023-04-05T04:20:51;6.75;;;2.90;;
37641;SDS011;23486;51.956;5.888;2023-04-05T04:23:16;8.93;;;3.47;;
37641;SDS011;23486;51.956;5.888;2023-04-05T04:25:43;6.63;;;3.15;;
37641;SDS011;23486;51.956;5.888;2023-04-05T04:28:10;6.93;;;3.38;;
37641;SDS011;23486;51.956;5.888;2023-04-05T04:30:36;6.13;;;3.08;;
37641;SDS011;23486;51.956;5.888;2023-04-05T04:33:02;7.55;;;3.38;;
37641;SDS011;23486;51.956;5.888;2023-04-05T04:35:28;7.95;;;3.30;;
37641;SDS011;23486;51.956;5.888;2023-04-05T04:40:27;8.30;;;3.28;;
37641;SDS011;23486;51.956;5.888;2023-04-05T04:42:56;7.15;;;2.63;;
37641;SDS011;23486;51.956;5.888;2023-04-05T04:45:25;8.07;;;3.60;;
37641;SDS011;23486;51.956;5.888;2023-04-05T04:47:54;7.57;;;3.42;;
37641;SDS011;23486;51.956;5.888;2023-04-05T04:50:19;9.73;;;4.30;;
37641;SDS011;23486;51.956;5.888;2023-04-05T04:52:48;8.20;;;4.15;;
37641;SDS011;23486;51.956;5.888;2023-04-05T04:55:14;9.05;;;3.50;;
37641;SDS011;23486;51.956;5.888;2023-04-05T04:57:40;7.85;;;4.40;;
37641;SDS011;23486;51.956;5.888;2023-04-05T05:00:10;8.70;;;4.13;;
37641;SDS011;23486;51.956;5.888;2023-04-05T05:02:38;8.82;;;3.50;;
37641;SDS011;23486;51.956;5.888;2023-04-05T05:05:05;8.70;;;3.58;;
37641;SDS011;23486;51.956;5.888;2023-04-05T05:07:31;9.40;;;4.15;;
37641;SDS011;23486;51.956;5.888;2023-04-05T05:09:57;8.70;;;3.92;;
37641;SDS011;23486;51.956;5.888;2023-04-05T05:12:23;7.13;;;2.97;;
37641;SDS011;23486;51.956;5.888;2023-04-05T05:14:48;10.80;;;3.80;;
37641;SDS011;23486;51.956;5.888;2023-04-05T05:17:14;7.80;;;3.90;;
37641;SDS011;23486;51.956;5.888;2023-04-05T05:19:40;8.82;;;5.95;;
37641;SDS011;23486;51.956;5.888;2023-04-05T05:22:05;9.05;;;3.63;;
37641;SDS011;23486;51.956;5.888;2023-04-05T05:24:31;8.20;;;3.47;;
37641;SDS011;23486;51.956;5.888;2023-04-05T05:26:56;7.15;;;3.38;;
37641;SDS011;23486;51.956;5.888;2023-04-05T05:29:22;7.82;;;4.45;;
37641;SDS011;23486;51.956;5.888;2023-04-05T05:31:47;8.27;;;3.15;;
37641;SDS011;23486;51.956;5.888;2023-04-05T05:34:13;6.28;;;2.78;;
37641;SDS011;23486;51.956;5.888;2023-04-05T05:36:39;9.20;;;3.22;;
37641;SDS011;23486;51.956;5.888;2023-04-05T05:39:05;7.30;;;3.53;;
37641;SDS011;23486;51.956;5.888;2023-04-05T05:41:37;8.02;;;3.58;;
37641;SDS011;23486;51.956;5.888;2023-04-05T05:44:03;6.88;;;3.17;;
37641;SDS011;23486;51.956;5.888;2023-04-05T05:46:30;5.05;;;2.90;;
37641;SDS011;23486;51.956;5.888;2023-04-05T05:48:58;5.20;;;2.78;;
37641;SDS011;23486;51.956;5.888;2023-04-05T05:51:24;7.03;;;2.80;;
37641;SDS011;23486;51.956;5.888;2023-04-05T05:53:50;6.38;;;3.15;;
37641;SDS011;23486;51.956;5.888;2023-04-05T05:56:15;7.55;;;3.47;;
37641;SDS011;23486;51.956;5.888;2023-04-05T05:58:47;7.57;;;3.90;;
37641;SDS011;23486;51.956;5.888;2023-04-05T06:01:13;8.27;;;4.07;;
37641;SDS011;23486;51.956;5.888;2023-04-05T06:03:38;7.72;;;3.75;;
37641;SDS011;23486;51.956;5.888;2023-04-05T06:06:04;9.15;;;4.68;;
37641;SDS011;23486;51.956;5.888;2023-04-05T06:08:32;8.77;;;4.40;;
37641;SDS011;23486;51.956;5.888;2023-04-05T06:10:58;9.32;;;3.90;;
37641;SDS011;23486;51.956;5.888;2023-04-05T06:13:26;10.45;;;4.20;;
37641;SDS011;23486;51.956;5.888;2023-04-05T06:15:53;11.82;;;5.57;;
37641;SDS011;23486;51.956;5.888;2023-04-05T06:18:19;11.05;;;5.93;;
37641;SDS011;23486;51.956;5.888;2023-04-05T06:20:45;9.45;;;4.22;;
37641;SDS011;23486;51.956;5.888;2023-04-05T06:23:11;11.27;;;5.70;;
37641;SDS011;23486;51.956;5.888;2023-04-05T06:25:37;9.20;;;3.78;;
37641;SDS011;23486;51.956;5.888;2023-04-05T06:28:03;9.20;;;4.65;;
37641;SDS011;23486;51.956;5.888;2023-04-05T06:30:30;8.88;;;4.07;;
37641;SDS011;23486;51.956;5.888;2023-04-05T06:32:56;11.20;;;4.60;;
37641;SDS011;23486;51.956;5.888;2023-04-05T06:35:22;9.90;;;4.05;;
37641;SDS011;23486;51.956;5.888;2023-04-05T06:37:49;8.50;;;4.25;;
37641;SDS011;23486;51.956;5.888;2023-04-05T06:40:15;8.75;;;4.07;;
37641;SDS011;23486;51.956;5.888;2023-04-05T06:42:41;6.20;;;3.08;;
37641;SDS011;23486;51.956;5.888;2023-04-05T06:45:07;7.75;;;3.47;;
37641;SDS011;23486;51.956;5.888;2023-04-05T06:47:34;9.02;;;4.45;;
37641;SDS011;23486;51.956;5.888;2023-04-05T06:50:02;6.38;;;3.00;;
37641;SDS011;23486;51.956;5.888;2023-04-05T06:52:29;9.52;;;3.50;;
37641;SDS011;23486;51.956;5.888;2023-04-05T06:54:56;8.73;;;4.00;;
37641;SDS011;23486;51.956;5.888;2023-04-05T06:57:21;9.65;;;4.70;;
37641;SDS011;23486;51.956;5.888;2023-04-05T06:59:47;9.75;;;3.70;;
37641;SDS011;23486;51.956;5.888;2023-04-05T07:02:12;6.78;;;3.42;;
37641;SDS011;23486;51.956;5.888;2023-04-05T07:04:38;9.23;;;3.50;;
37641;SDS011;23486;51.956;5.888;2023-04-05T07:07:05;7.38;;;3.53;;
37641;SDS011;23486;51.956;5.888;2023-04-05T07:09:31;11.15;;;3.28;;
37641;SDS011;23486;51.956;5.888;2023-04-05T07:12:04;8.00;;;2.90;;
37641;SDS011;23486;51.956;5.888;2023-04-05T07:14:37;9.60;;;4.70;;
37641;SDS011;23486;51.956;5.888;2023-04-05T07:17:06;11.93;;;5.85;;
37641;SDS011;23486;51.956;5.888;2023-04-05T07:19:31;11.00;;;5.38;;
37641;SDS011;23486;51.956;5.888;2023-04-05T07:22:00;9.80;;;4.53;;
37641;SDS011;23486;51.956;5.888;2023-04-05T07:24:29;10.02;;;4.78;;
37641;SDS011;23486;51.956;5.888;2023-04-05T07:26:54;9.35;;;4.75;;
37641;SDS011;23486;51.956;5.888;2023-04-05T07:29:22;7.63;;;3.90;;
37641;SDS011;23486;51.956;5.888;2023-04-05T07:31:48;12.80;;;5.60;;
37641;SDS011;23486;51.956;5.888;2023-04-05T07:34:14;6.70;;;3.60;;
37641;SDS011;23486;51.956;5.888;2023-04-05T07:36:39;7.75;;;4.10;;
37641;SDS011;23486;51.956;5.888;2023-04-05T07:39:05;12.40;;;5.82;;
37641;SDS011;23486;51.956;5.888;2023-04-05T07:41:31;10.73;;;6.00;;
37641;SDS011;23486;51.956;5.888;2023-04-05T07:43:59;10.90;;;5.65;;
37641;SDS011;23486;51.956;5.888;2023-04-05T07:46:25;11.77;;;6.50;;
37641;SDS011;23486;51.956;5.888;2023-04-05T07:48:51;9.68;;;4.72;;
37641;SDS011;23486;51.956;5.888;2023-04-05T07:51:17;8.30;;;5.13;;
37641;SDS011;23486;51.956;5.888;2023-04-05T07:53:46;8.63;;;3.97;;
37641;SDS011;23486;51.956;5.888;2023-04-05T07:56:12;7.30;;;4.50;;
37641;SDS011;23486;51.956;5.888;2023-04-05T07:58:38;11.98;;;5.18;;
37641;SDS011;23486;51.956;5.888;2023-04-05T08:01:04;10.13;;;4.53;;
37641;SDS011;23486;51.956;5.888;2023-04-05T08:03:31;8.18;;;4.03;;
37641;SDS011;23486;51.956;5.888;2023-04-05T08:05:59;6.07;;;3.05;;
37641;SDS011;23486;51.956;5.888;2023-04-05T08:08:38;8.25;;;3.25;;
37641;SDS011;23486;51.956;5.888;2023-04-05T08:11:04;6.20;;;2.75;;
37641;SDS011;23486;51.956;5.888;2023-04-05T08:13:30;7.22;;;3.17;;
37641;SDS011;23486;51.956;5.888;2023-04-05T08:15:58;7.80;;;4.13;;
37641;SDS011;23486;51.956;5.888;2023-04-05T08:18:24;9.85;;;3.85;;
37641;SDS011;23486;51.956;5.888;2023-04-05T08:20:51;7.95;;;4.43;;
37641;SDS011;23486;51.956;5.888;2023-04-05T08:23:18;6.03;;;3.20;;
37641;SDS011;23486;51.956;5.888;2023-04-05T08:25:44;6.70;;;3.25;;
37641;SDS011;23486;51.956;5.888;2023-04-05T08:28:09;8.95;;;3.30;;
37641;SDS011;23486;51.956;5.888;2023-04-05T08:30:35;7.28;;;2.60;;
37641;SDS011;23486;51.956;5.888;2023-04-05T08:33:02;6.82;;;4.05;;
37641;SDS011;23486;51.956;5.888;2023-04-05T08:35:28;6.80;;;3.13;;
37641;SDS011;23486;51.956;5.888;2023-04-05T08:37:55;7.53;;;3.30;;
37641;SDS011;23486;51.956;5.888;2023-04-05T08:40:20;7.45;;;4.00;;
37641;SDS011;23486;51.956;5.888;2023-04-05T08:42:56;7.95;;;3.03;;
37641;SDS011;23486;51.956;5.888;2023-04-05T08:45:27;7.60;;;3.95;;
37641;SDS011;23486;51.956;5.888;2023-04-05T08:47:55;12.02;;;4.78;;
37641;SDS011;23486;51.956;5.888;2023-04-05T08:50:21;7.90;;;3.55;;
37641;SDS011;23486;51.956;5.888;2023-04-05T08:52:48;7.40;;;3.53;;
37641;SDS011;23486;51.956;5.888;2023-04-05T08:55:14;7.60;;;4.18;;
37641;SDS011;23486;51.956;5.888;2023-04-05T08:57:42;6.43;;;2.60;;
37641;SDS011;23486;51.956;5.888;2023-04-05T09:00:11;7.95;;;3.58;;
37641;SDS011;23486;51.956;5.888;2023-04-05T09:02:38;6.15;;;2.90;;
37641;SDS011;23486;51.956;5.888;2023-04-05T09:05:07;5.53;;;2.63;;
37641;SDS011;23486;51.956;5.888;2023-04-05T09:07:34;9.00;;;3.35;;
37641;SDS011;23486;51.956;5.888;2023-04-05T09:10:01;7.35;;;2.92;;
37641;SDS011;23486;51.956;5.888;2023-04-05T09:12:29;6.03;;;2.47;;
37641;SDS011;23486;51.956;5.888;2023-04-05T09:14:56;5.50;;;2.60;;
37641;SDS011;23486;51.956;5.888;2023-04-05T09:17:24;8.88;;;3.58;;
37641;SDS011;23486;51.956;5.888;2023-04-05T09:19:51;5.53;;;2.00;;
37641;SDS011;23486;51.956;5.888;2023-04-05T09:22:16;4.43;;;2.42;;
37641;SDS011;23486;51.956;5.888;2023-04-05T09:24:43;9.18;;;3.35;;
37641;SDS011;23486;51.956;5.888;2023-04-05T09:27:14;7.90;;;2.80;;
37641;SDS011;23486;51.956;5.888;2023-04-05T09:29:43;4.80;;;2.63;;
37641;SDS011;23486;51.956;5.888;2023-04-05T09:32:10;4.75;;;2.17;;
37641;SDS011;23486;51.956;5.888;2023-04-05T09:34:37;6.03;;;2.45;;
37641;SDS011;23486;51.956;5.888;2023-04-05T09:37:14;5.30;;;2.20;;
37641;SDS011;23486;51.956;5.888;2023-04-05T09:39:44;5.15;;;1.90;;
37641;SDS011;23486;51.956;5.888;2023-04-05T09:42:12;4.43;;;1.98;;
37641;SDS011;23486;51.956;5.888;2023-04-05T09:47:27;5.68;;;2.53;;
37641;SDS011;23486;51.956;5.888;2023-04-05T09:50:19;6.93;;;2.70;;
37641;SDS011;23486;51.956;5.888;2023-04-05T09:52:44;4.85;;;2.55;;
37641;SDS011;23486;51.956;5.888;2023-04-05T09:55:10;6.70;;;3.03;;
37641;SDS011;23486;51.956;5.888;2023-04-05T09:57:37;8.52;;;2.72;;
37641;SDS011;23486;51.956;5.888;2023-04-05T10:00:17;8.50;;;3.05;;
37641;SDS011;23486;51.956;5.888;2023-04-05T10:02:44;8.05;;;3.53;;
37641;SDS011;23486;51.956;5.888;2023-04-05T10:05:15;6.60;;;3.65;;
37641;SDS011;23486;51.956;5.888;2023-04-05T10:07:41;7.40;;;3.58;;
37641;SDS011;23486;51.956;5.888;2023-04-05T10:10:08;8.65;;;3.47;;
37641;SDS011;23486;51.956;5.888;2023-04-05T10:12:37;8.45;;;4.38;;
37641;SDS011;23486;51.956;5.888;2023-04-05T10:15:05;8.68;;;3.88;;
37641;SDS011;23486;51.956;5.888;2023-04-05T10:31:13;7.38;;;4.10;;
37641;SDS011;23486;51.956;5.888;2023-04-05T10:36:57;5.75;;;2.75;;
37641;SDS011;23486;51.956;5.888;2023-04-05T10:39:38;6.40;;;2.83;;
37641;SDS011;23486;51.956;5.888;2023-04-05T10:42:10;10.40;;;4.05;;
37641;SDS011;23486;51.956;5.888;2023-04-05T10:44:45;8.40;;;4.07;;
37641;SDS011;23486;51.956;5.888;2023-04-05T10:47:15;6.75;;;3.20;;
37641;SDS011;23486;51.956;5.888;2023-04-05T10:49:46;5.88;;;3.17;;
37641;SDS011;23486;51.956;5.888;2023-04-05T10:52:16;4.73;;;2.53;;
37641;SDS011;23486;51.956;5.888;2023-04-05T10:54:42;7.43;;;2.95;;
37641;SDS011;23486;51.956;5.888;2023-04-05T10:57:09;5.30;;;2.38;;
37641;SDS011;23486;51.956;5.888;2023-04-05T10:59:40;8.60;;;3.40;;
37641;SDS011;23486;51.956;5.888;2023-04-05T11:02:11;7.28;;;3.22;;
37641;SDS011;23486;51.956;5.888;2023-04-05T11:04:41;7.97;;;3.70;;
37641;SDS011;23486;51.956;5.888;2023-04-05T11:09:54;5.55;;;3.15;;
37641;SDS011;23486;51.956;5.888;2023-04-05T11:21:04;6.60;;;1.80;;
37641;SDS011;23486;51.956;5.888;2023-04-05T11:23:30;5.63;;;3.05;;
37641;SDS011;23486;51.956;5.888;2023-04-05T11:26:02;5.45;;;2.63;;
37641;SDS011;23486;51.956;5.888;2023-04-05T11:28:36;5.15;;;2.28;;
37641;SDS011;23486;51.956;5.888;2023-04-05T11:36:12;6.07;;;3.53;;
37641;SDS011;23486;51.956;5.888;2023-04-05T11:39:11;7.30;;;3.35;;
37641;SDS011;23486;51.956;5.888;2023-04-05T11:41:45;6.65;;;3.42;;
37641;SDS011;23486;51.956;5.888;2023-04-05T11:44:15;7.90;;;3.47;;
37641;SDS011;23486;51.956;5.888;2023-04-05T11:46:41;6.65;;;2.85;;
37641;SDS011;23486;51.956;5.888;2023-04-05T11:49:07;5.72;;;2.35;;
37641;SDS011;23486;51.956;5.888;2023-04-05T11:51:33;6.32;;;2.58;;
37641;SDS011;23486;51.956;5.888;2023-04-05T11:53:59;6.63;;;3.13;;
37641;SDS011;23486;51.956;5.888;2023-04-05T11:56:25;3.85;;;2.20;;
37641;SDS011;23486;51.956;5.888;2023-04-05T11:58:50;6.28;;;3.75;;
37641;SDS011;23486;51.956;5.888;2023-04-05T12:01:16;7.00;;;3.33;;
37641;SDS011;23486;51.956;5.888;2023-04-05T12:03:42;4.70;;;2.47;;
37641;SDS011;23486;51.956;5.888;2023-04-05T12:06:07;5.05;;;2.90;;
37641;SDS011;23486;51.956;5.888;2023-04-05T12:08:43;4.32;;;1.80;;
37641;SDS011;23486;51.956;5.888;2023-04-05T12:11:26;6.18;;;2.30;;
37641;SDS011;23486;51.956;5.888;2023-04-05T12:13:55;5.47;;;2.25;;
37641;SDS011;23486;51.956;5.888;2023-04-05T12:16:25;5.97;;;2.78;;
37641;SDS011;23486;51.956;5.888;2023-04-05T12:18:55;6.45;;;3.58;;
37641;SDS011;23486;51.956;5.888;2023-04-05T12:21:22;6.78;;;2.90;;
37641;SDS011;23486;51.956;5.888;2023-04-05T12:23:48;4.47;;;1.80;;
37641;SDS011;23486;51.956;5.888;2023-04-05T12:26:17;6.22;;;2.75;;
37641;SDS011;23486;51.956;5.888;2023-04-05T12:28:50;6.97;;;3.10;;
37641;SDS011;23486;51.956;5.888;2023-04-05T12:31:36;5.60;;;2.03;;
37641;SDS011;23486;51.956;5.888;2023-04-05T12:34:03;4.60;;;2.35;;
37641;SDS011;23486;51.956;5.888;2023-04-05T12:36:29;4.95;;;2.83;;
37641;SDS011;23486;51.956;5.888;2023-04-05T12:38:56;6.38;;;4.13;;
37641;SDS011;23486;51.956;5.888;2023-04-05T12:41:28;5.38;;;3.22;;
37641;SDS011;23486;51.956;5.888;2023-04-05T12:43:55;6.60;;;2.45;;
37641;SDS011;23486;51.956;5.888;2023-04-05T12:49:04;4.47;;;2.10;;
37641;SDS011;23486;51.956;5.888;2023-04-05T12:51:30;9.75;;;4.18;;
37641;SDS011;23486;51.956;5.888;2023-04-05T12:53:56;7.60;;;3.83;;
37641;SDS011;23486;51.956;5.888;2023-04-05T12:56:27;5.38;;;3.55;;
37641;SDS011;23486;51.956;5.888;2023-04-05T12:58:57;7.10;;;4.20;;
37641;SDS011;23486;51.956;5.888;2023-04-05T13:01:23;4.47;;;3.33;;
37641;SDS011;23486;51.956;5.888;2023-04-05T13:03:48;7.45;;;4.47;;
37641;SDS011;23486;51.956;5.888;2023-04-05T13:06:15;7.97;;;3.88;;
37641;SDS011;23486;51.956;5.888;2023-04-05T13:08:41;6.30;;;3.25;;
37641;SDS011;23486;51.956;5.888;2023-04-05T13:11:06;5.38;;;3.40;;
37641;SDS011;23486;51.956;5.888;2023-04-05T13:13:32;8.05;;;4.93;;
37641;SDS011;23486;51.956;5.888;2023-04-05T13:15:58;5.93;;;3.50;;
37641;SDS011;23486;51.956;5.888;2023-04-05T13:18:24;9.52;;;4.00;;
37641;SDS011;23486;51.956;5.888;2023-04-05T13:20:50;4.25;;;2.72;;
37641;SDS011;23486;51.956;5.888;2023-04-05T13:23:15;6.05;;;3.20;;
37641;SDS011;23486;51.956;5.888;2023-04-05T13:25:41;5.13;;;2.90;;
37641;SDS011;23486;51.956;5.888;2023-04-05T13:28:09;5.70;;;2.38;;
37641;SDS011;23486;51.956;5.888;2023-04-05T13:30:38;6.38;;;3.08;;
37641;SDS011;23486;51.956;5.888;2023-04-05T13:33:03;4.47;;;2.53;;
37641;SDS011;23486;51.956;5.888;2023-04-05T13:35:29;4.25;;;2.63;;
37641;SDS011;23486;51.956;5.888;2023-04-05T13:37:55;5.53;;;2.80;;
37641;SDS011;23486;51.956;5.888;2023-04-05T13:40:20;5.88;;;3.10;;
37641;SDS011;23486;51.956;5.888;2023-04-05T13:42:46;5.47;;;2.92;;
37641;SDS011;23486;51.956;5.888;2023-04-05T13:45:13;5.57;;;3.47;;
37641;SDS011;23486;51.956;5.888;2023-04-05T13:47:38;5.78;;;3.42;;
37641;SDS011;23486;51.956;5.888;2023-04-05T13:50:04;6.95;;;3.63;;
37641;SDS011;23486;51.956;5.888;2023-04-05T13:52:30;5.78;;;3.00;;
37641;SDS011;23486;51.956;5.888;2023-04-05T13:54:56;6.57;;;4.07;;
37641;SDS011;23486;51.956;5.888;2023-04-05T13:57:21;6.97;;;3.33;;
37641;SDS011;23486;51.956;5.888;2023-04-05T13:59:47;7.07;;;3.22;;
37641;SDS011;23486;51.956;5.888;2023-04-05T14:02:13;4.72;;;2.33;;
37641;SDS011;23486;51.956;5.888;2023-04-05T14:04:39;4.78;;;2.58;;
37641;SDS011;23486;51.956;5.888;2023-04-05T14:07:07;6.25;;;3.20;;
37641;SDS011;23486;51.956;5.888;2023-04-05T14:09:33;6.15;;;3.70;;
37641;SDS011;23486;51.956;5.888;2023-04-05T14:11:59;6.53;;;2.47;;
37641;SDS011;23486;51.956;5.888;2023-04-05T14:14:26;5.43;;;2.55;;
37641;SDS011;23486;51.956;5.888;2023-04-05T14:16:52;5.75;;;2.67;;
37641;SDS011;23486;51.956;5.888;2023-04-05T14:19:18;5.75;;;2.58;;
37641;SDS011;23486;51.956;5.888;2023-04-05T14:21:44;5.47;;;2.20;;
37641;SDS011;23486;51.956;5.888;2023-04-05T14:24:10;7.22;;;2.92;;
37641;SDS011;23486;51.956;5.888;2023-04-05T14:26:36;6.70;;;3.42;;
37641;SDS011;23486;51.956;5.888;2023-04-05T14:29:01;5.63;;;2.67;;
37641;SDS011;23486;51.956;5.888;2023-04-05T14:31:27;5.15;;;2.85;;
37641;SDS011;23486;51.956;5.888;2023-04-05T14:33:53;4.93;;;2.45;;
37641;SDS011;23486;51.956;5.888;2023-04-05T14:36:19;3.65;;;1.73;;
37641;SDS011;23486;51.956;5.888;2023-04-05T14:38:44;5.88;;;2.50;;
37641;SDS011;23486;51.956;5.888;2023-04-05T14:41:10;7.47;;;3.85;;
37641;SDS011;23486;51.956;5.888;2023-04-05T14:43:36;6.90;;;3.58;;
37641;SDS011;23486;51.956;5.888;2023-04-05T14:46:02;11.27;;;4.03;;
37641;SDS011;23486;51.956;5.888;2023-04-05T14:48:28;5.25;;;2.58;;
37641;SDS011;23486;51.956;5.888;2023-04-05T14:50:55;6.63;;;3.22;;
37641;SDS011;23486;51.956;5.888;2023-04-05T14:53:22;5.65;;;2.75;;
37641;SDS011;23486;51.956;5.888;2023-04-05T14:55:48;5.93;;;2.80;;
37641;SDS011;23486;51.956;5.888;2023-04-05T14:58:14;6.88;;;2.78;;
37641;SDS011;23486;51.956;5.888;2023-04-05T15:00:40;6.10;;;3.05;;
37641;SDS011;23486;51.956;5.888;2023-04-05T15:03:07;5.57;;;2.22;;
37641;SDS011;23486;51.956;5.888;2023-04-05T15:05:33;5.05;;;2.60;;
37641;SDS011;23486;51.956;5.888;2023-04-05T15:07:58;6.13;;;2.97;;
37641;SDS011;23486;51.956;5.888;2023-04-05T15:10:24;5.50;;;2.22;;
37641;SDS011;23486;51.956;5.888;2023-04-05T15:12:50;3.65;;;2.30;;
37641;SDS011;23486;51.956;5.888;2023-04-05T15:15:15;4.80;;;2.38;;
37641;SDS011;23486;51.956;5.888;2023-04-05T15:17:41;5.45;;;2.92;;
37641;SDS011;23486;51.956;5.888;2023-04-05T15:20:07;4.70;;;2.90;;
37641;SDS011;23486;51.956;5.888;2023-04-05T15:22:32;4.90;;;2.80;;
37641;SDS011;23486;51.956;5.888;2023-04-05T15:25:02;5.97;;;2.80;;
37641;SDS011;23486;51.956;5.888;2023-04-05T15:27:28;4.72;;;2.63;;
37641;SDS011;23486;51.956;5.888;2023-04-05T15:29:54;5.07;;;2.80;;
37641;SDS011;23486;51.956;5.888;2023-04-05T15:32:20;5.97;;;2.85;;
37641;SDS011;23486;51.956;5.888;2023-04-05T15:34:45;4.50;;;2.63;;
37641;SDS011;23486;51.956;5.888;2023-04-05T15:37:11;4.40;;;2.10;;
37641;SDS011;23486;51.956;5.888;2023-04-05T15:39:39;5.75;;;2.05;;
37641;SDS011;23486;51.956;5.888;2023-04-05T15:42:05;4.53;;;2.60;;